ニジネヴァルトフスク の空港の天気 - METARとTAF

Nizhnevartovsk ( USNN / NJC ) - ロシア ニジネヴァルトフスク
飛行場実況気象(Metar)
観測時間05/27 03:00 YEKT (05/26 22:00 UTC)
風向・風速北 5m/s 瞬間風速10m/s
視程10km以上
天気現象
全天を覆う雲 雲底高度 790m
気温5℃
湿度70%
気圧1027hPa
METARUSNN 262200Z 36005G10MPS 9999 OVC026 05/M00 Q1027 R03/19//58 NOSIG RMK QFE766
過去の天気等 Google飛行場航空写真 Wunderground天気予報

過去48時間のMETAR

飛行場予報(TAF)
発表時間: 5/27 01:00 YEKT (5/26 20:00 UTC)
予報対象時間: 27日2時 YEKT ~ 28日2時 YEKT
風向・風速北北西 5m/s 瞬間風速 12m/s
視程10km以上
全天の8割程度の積乱雲 雲底高度 610m
27日2時 YEKT ~ 27日8時 YEKT に一時的に
視程6000m
天気現象弱いしゅう雨
全天の8割程度の積乱雲 雲底高度 460m
TAF USNN 262000Z 2621/2721 34005G12MPS 9999 BKN020CB
TEMPO 2621/2703 6000 -SHRA BKN015CB